METAR Data
IDs: Format: Raw Decoded Include TAF

Data at: 1017 UTC 18 Jan 2019

PAKT 180953Z AUTO 33009KT 10SM BKN080 OVC100 03/00 A2948 RMK AO2 SLP983 T00330000 TSNO
PAKT 180853Z AUTO 33009KT 10SM BKN100 03/M01 A2947 RMK AO2 SLP981 T00331006 400501022 53004 TSNO
PAKT 180753Z AUTO 33009KT 10SM FEW120 03/M01 A2947 RMK AO2 SLP979 T00281011 TSNO
PAKT 180653Z AUTO 33007KT 10SM OVC100 03/00 A2946 RMK AO2 SLP976 T00280000 TSNO
PAKT 180553Z 31006KT 10SM SCT120 02/00 A2946 RMK SLP978 HARBOR WIND VRB06KT T00220000 10028 20017 55001 VIA AUTODIAL
PAKT 180453Z VRB03KT 10SM CLR 02/00 A2946 RMK AO2 SLP978 HARBOR WIND 31008KT T00220000
PAKT 180353Z 29005KT 10SM CLR 02/00 A2946 RMK AO2 SLP978 HARBOR WIND VRB06KT T00170000
PAKT 180253Z 30005KT 10SM CLR 02/00 A2946 RMK AO2 SLP978 HARBOR WIND 10008KT T00170000 58004
PAKT 180153Z 31006KT 10SM CLR 02/00 A2947 RMK AO2 SLP981 HARBOR WIND 30010KT T00220000
PAKT 180053Z 30005KT 10SM CLR 02/00 A2947 RMK AO2 SLP982 HARBOR WIND 31010KT T00220000
PAKT 172353Z 31006KT 10SM CLR 03/M01 A2948 RMK AO2 SLP983 HARBOR WIND 30014KT T00281006 10050 20011 56003
PAKT 172253Z 32006KT 10SM CLR 04/M01 A2948 RMK AO2 SLP983 HARBOR WIND 29014KT T00391006
PAKT 172153Z 32007KT 10SM CLR 04/00 A2948 RMK SLP985 HARBOR WIND 31011KT T00440000 VIA AUTODIAL
PAKT 172053Z 32005KT 10SM CLR 04/01 A2948 RMK AO2 SLP986 HARBOR WIND 27012KT T00390006 58003
PAKT 172018Z 31007KT 10SM CLR 04/01 A2949 RMK AO2 HARBOR WIND 27012KT T00390006
PAKT 171953Z 31007KT 10SM CLR 03/00 A2950 RMK AO2 SLP990 HARBOR WIND 28010KT T00330000
PAKT 171853Z 31005KT 10SM CLR 02/M01 A2949 RMK SLP988 HARBOR WIND VRB05KT T00221006 VIA AUTODIAL
PAKT 171753Z 29003KT 10SM CLR 01/M01 A2949 RMK SLP989 HARBOR WIND 32005KT T00111011 10017 21011 53001 VIA AUTODIAL
PAKT 171653Z 26004KT 10SM CLR 01/M02 A2948 RMK AO2 SLP985 HARBOR WIND VRB05KT T00061017
PAKT 171623Z 00000KT 10SM CLR M01/M02 A2949 RMK AO2 HARBOR WIND VRB05KT T10061017
PAKT 171553Z 00000KT 10SM CLR M01/M02 A2948 RMK AO2 SLP985 HARBOR WIND VRB05KT T10061017
PAKT 171504Z 00000KT 10SM CLR 01/M01 A2949 RMK AO2 HARBOR WIND VRB05KT T00061011
PAKT 171453Z AUTO 34005KT 10SM CLR 02/M01 A2949 RMK AO2 SLP988 T00171011 58025 TSNO
PAKT 171353Z AUTO 31003KT 10SM CLR 00/M01 A2952 RMK AO2 SLP998 T00001011 TSNO
PAKT 171253Z AUTO 00000KT 10SM CLR 00/M03 A2955 RMK AO2 SLP007 T00001028 TSNO
PAKT 171153Z AUTO 00000KT 10SM CLR M01/M02 A2957 RMK SLP014 I6000 T10061017 10006 21022 58019 TSNO VIA AUTODIAL
PAKT 171053Z AUTO 00000KT 10SM CLR M02/M03 A2959 RMK AO2 SLP023 T10171028 TSNO
PAKT 170953Z AUTO 29003KT 10SM CLR M01/M02 A2961 RMK AO2 SLP027 I1000 T10061017 TSNO
PAKT 170901Z AUTO 36004KT 10SM FEW002 00/M01 A2962 RMK AO2 T00001011 TSNO
PAKT 170853Z AUTO 00000KT 10SM CLR M01/M02 A2962 RMK AO2 SLP033 I1000 I3000 T10061017 400171022 58021 TSNO
PAKT 170753Z AUTO 00000KT 10SM CLR M01/M02 A2965 RMK AO2 SLP043 T10111017 TSNO
PAKT 170653Z AUTO 28003KT 10SM FEW002 M01/M02 A2967 RMK SLP049 T10061017 TSNO VIA AUTODIAL
PAKT 170651Z AUTO 29003KT 10SM FEW002 M01/M02 A2967 RMK TSNO VIA AUTODIAL
PAKT 170553Z 00000KT 10SM CLR M01/M01 A2968 RMK AO2 SLP054 T10061011 10017 21006 53001
PAKT 170453Z 13003KT 10SM CLR 02/01 A2968 RMK AO2 SLP053 T00170006
PAKT 170353Z 00000KT 10SM CLR 00/M01 A2968 RMK AO2 SLP052 T00001006
PAKT 170253Z 00000KT 10SM CLR 01/00 A2968 RMK AO2 SLP052 T00060000 58013
PAKT 170153Z 29004KT 10SM CLR 01/01 A2970 RMK AO2 SLP058 T00110006
PAKT 170053Z 30005KT 10SM CLR 01/01 A2971 RMK AO2 SLP062 HARBOR WIND 29007KT T00110006
PAKT 162353Z 30004KT 10SM CLR 02/01 A2972 RMK AO2 SLP065 HARBOR WIND 31005KT, FGBNK NE I6002 T00170011 10017 21006 56007
PAKT 162253Z 29004KT 7SM SCT002 01/01 A2972 RMK AO2 SLP066 HARBOR WIND VRB05KT, FGBNK N-E & W T00110011
PAKT 162240Z 29005KT 3SM R11/4500VP6000FT BR SCT002 01/01 A2972 RMK AO2 HARBOR WIND 25008KT, FGBNK N-E & W T00110006
PAKT 162226Z 30004KT 3/4SM R11/1800VP6000FT BR BKN001 01/01 A2972 RMK AO2 T00060006
PAKT 162223Z 29004KT 1/2SM R11/1400V3000FT FG BKN001 01/01 A2972 RMK AO2 T00060006